Edina, Minnesota
Current Conditions -  °F | °C
As of 3:53 AM on Tuesday 27 Jan 2015 (Local Time) from KMSP Reporting Station
Overcast Overcast  
Wind Chill: -2°   Ceiling: 2500
Heat Index:   Visibility: 10mi
Dew Point: -4°   Wind: 6mph
Humidity: 72%   Direction: 330°NNW
Pressure: 30.07"   Gusts: NA
Location:  44.91°N, 93.35°W
Report Text: KMSP 270953Z 33005KT 10SM OVC025 01/M04 A3007 RMK AO2 SLP189 T00061039
Loading
Personal Weather Stations






























Interactive Weather Map New forecast layout! Learn more

10-Day Weather Forecast

Advertisements
Track Severe Weather on mobile